Quincy, IL

12:13 PM CDT on August 21, 2017 (GMT -0500)
Tri-State Storm Chasers - WL#1 | | Change Station

Elev 659 ft 39.93 °N, 91.37 °W | Updated 31 seconds ago

Partly Cloudy
Partly Cloudy
89.6 °F
Feels Like 98 °F
N
2.0
Wind Variable Wind from West

Today
High -- | Low -- °F
--% Chance of Precip.
Yesterday
High -- | Low -- °F
Precip. -- in
Pressure 30.09 in
Visibility 10.0 miles
Clouds Mostly Cloudy 5000 ft
Mostly Cloudy 6000 ft
Heat Index 98 °F
Dew Point 73 °F
Humidity 59%
Rainfall 0.07 in
Snow Depth Not available.
6:23 AM 7:53 PM
Waning Crescent, 0% visible
SPECI KUIN 211702Z AUTO 11007KT 10SM BKN050 BKN060 26/22 A3009 RMK AO2 LTG DSNT ALQDS T02560217
Pressure 30.09 in
Visibility 10.0 miles
Clouds Mostly Cloudy 5000 ft
Mostly Cloudy 6000 ft
Heat Index 98 °F
Dew Point 73 °F
Humidity 59%
Rainfall 0.07 in
Snow Depth Not available.
6:23 AM 7:53 PM
Waning Crescent, 0% visible
SPECI KUIN 211702Z AUTO 11007KT 10SM BKN050 BKN060 26/22 A3009 RMK AO2 LTG DSNT ALQDS T02560217

Get Severe Weather Alerts

Thanks for signing up!

Be on the lookout for a verification email in your inbox.

You'll start receiving the daily forecast at 6 AM.

×

10-Day Weather Forecast

Almanac

Astronomy

Aug. 21, 2017 Rise Set
Actual Time
Civil Twilight
Nautical Twilight
Astronomical Twilight
Moon
Length of Visible Light
Length of Day
Tomorrow will be .
, % of the Moon is Illuminated

Today's Extremes

State Highs State Lows

Community

WunderPhotos

Category 6

Welcome to Category 6. This is the collective home for Weather Underground's featured writeups by Dr. Jeff Masters (right), Bob Henson (left), Chris Burt, and other regular contributors.

Nearby

Air Quality

  Air Quality AQ Index Pollutant
Not available.

Snow Depth

Station Depth Elevation

Earthquake Activity

City Distance Mag. Time & Date
Minimum magnitude displayed is 2.5.

Coastal Water Temperatures

Place Temperature

Stations

Nearby Weather Stations

Station Location Temp. Windchill Dew Point Humidity Wind Precip. Elev Updated Type
                   

Watches & Warnings

There are currently no watches in effect.